Terminal Aerodrome Forecast
Issued by NWS Louisville, KY

Home | Current Version | Previous Version | Text Only | Print | Product List | Glossary On
Versions: 1 2 3 4 5 6 7 8 9 10 11 12 13 14 15 16 17 18 19 20 21 22
839
FTUS43 KLMK 210957 AAB
TAFBWG
TAF AMD
KBWG 210957Z 2110/2206 00000KT 6SM BR BKN250
      TEMPO 2110/2111 1SM BR
     FM211200 15004KT P6SM BKN250
     FM211500 17008KT P6SM BKN250
     FM220400 15006KT P6SM SCT250 WS013/18035KT=

USA.gov is the U.S. government's official web portal to all federal, state and local government web resources and services.